Time;durP1;ratioP1;P1;durP2;ratioP2;P2;SDS_P1;SDS_P2;PMS_P1;PMS_P2;Temp;Humidity;BMP_temperature;BMP_pressure;BME280_temperature;BME280_humidity;BME280_pressure;Samples;Min_cycle;Max_cycle;Signal;HPM_P1;HPM_P2
2023/06/16 00:00:32;;;;;;;18.95;8.82;;;;;;;17.94;55.97;101080.50;10277453;29;20043;-73
2023/06/16 00:05:34;;;;;;;17.75;8.60;;;;;;;17.85;55.74;101081.56;10281264;29;20047;-74
2023/06/16 00:10:36;;;;;;;20.33;9.10;;;;;;;17.89;55.53;101080.63;10262547;28;20047;-74
2023/06/16 00:15:39;;;;;;;17.20;9.38;;;;;;;17.77;55.88;101078.44;10275882;28;20059;-74
2023/06/16 00:20:41;;;;;;;14.25;8.98;;;;;;;17.74;55.66;101075.50;10281567;28;20063;-74
2023/06/16 00:25:43;;;;;;;17.58;9.43;;;;;;;17.65;55.50;101074.59;10274325;28;20062;-74
2023/06/16 00:30:45;;;;;;;27.95;16.73;;;;;;;17.72;53.86;101067.50;10283887;28;20522;-74
2023/06/16 00:35:48;;;;;;;32.92;21.27;;;;;;;17.56;54.38;101071.78;10279322;29;20062;-74
2023/06/16 00:40:50;;;;;;;44.50;26.60;;;;;;;17.56;54.42;101063.44;10281168;29;20047;-74
2023/06/16 00:45:52;;;;;;;29.02;17.85;;;;;;;17.54;55.37;101062.94;10265375;28;20047;-74
2023/06/16 00:50:55;;;;;;;21.35;11.13;;;;;;;17.53;55.80;101058.53;10248871;29;20054;-74
2023/06/16 00:55:58;;;;;;;20.48;10.05;;;;;;;17.47;55.72;101049.50;10275066;29;20070;-73
2023/06/16 01:01:00;;;;;;;16.50;9.10;;;;;;;17.53;56.30;101053.00;10287195;29;20050;-73
2023/06/16 01:06:09;;;;;;;15.73;8.63;;;;;;;17.57;56.64;101053.16;10286162;29;20446;-73
2023/06/16 01:11:14;;;;;;;15.93;8.57;;;;;;;17.43;56.41;101051.28;10285277;29;20039;-74
2023/06/16 01:16:20;;;;;;;12.38;7.95;;;;;;;17.37;57.81;101035.09;10286318;29;20486;-74
2023/06/16 01:21:47;;;;;;;9.80;6.45;;;;;;;17.42;57.80;101037.75;10268742;29;20051;-74
2023/06/16 01:26:52;;;;;;;10.15;6.80;;;;;;;17.40;57.96;101037.25;10286335;29;20050;-74
2023/06/16 01:31:57;;;;;;;9.48;5.80;;;;;;;17.36;58.39;101031.50;10285000;29;20078;-74
2023/06/16 01:37:00;;;;;;;7.38;5.50;;;;;;;17.20;58.94;101035.00;10284873;29;20041;-74
2023/06/16 01:42:03;;;;;;;10.88;5.50;;;;;;;17.12;59.40;101034.59;10273096;28;20059;-74
2023/06/16 01:47:05;;;;;;;6.93;5.00;;;;;;;17.16;59.27;101027.28;10280112;29;20051;-74
2023/06/16 01:52:08;;;;;;;7.72;4.95;;;;;;;17.34;59.08;101038.50;10283095;29;20055;-74
2023/06/16 01:57:11;;;;;;;9.25;5.00;;;;;;;17.47;59.25;101037.59;10283188;28;20043;-74
2023/06/16 02:02:16;;;;;;;7.95;4.70;;;;;;;17.40;60.26;101037.25;10268033;29;20043;-74
2023/06/16 02:07:24;;;;;;;7.35;4.85;;;;;;;17.49;61.06;101029.78;10283272;29;20046;-74
2023/06/16 02:12:26;;;;;;;6.18;4.30;;;;;;;17.67;60.88;101030.69;10299447;28;20070;-74
2023/06/16 02:17:29;;;;;;;11.63;4.78;;;;;;;17.84;61.35;101029.97;10284283;28;20047;-74
2023/06/16 02:22:34;;;;;;;6.57;4.45;;;;;;;17.99;60.53;101032.31;10282272;29;20533;-73
2023/06/16 02:27:37;;;;;;;10.63;4.70;;;;;;;18.13;58.22;101027.47;10284786;28;20431;-74
2023/06/16 02:32:39;;;;;;;9.18;4.78;;;;;;;18.42;57.14;101024.09;10282961;29;20043;-73
2023/06/16 02:37:42;;;;;;;8.63;4.50;;;;;;;18.58;55.87;101016.13;10282593;29;20066;-74
2023/06/16 02:42:45;;;;;;;6.80;4.97;;;;;;;18.83;55.19;101023.66;10283090;29;20055;-74
2023/06/16 02:47:47;;;;;;;6.50;5.55;;;;;;;19.31;54.25;101022.63;10266091;29;20425;-74
2023/06/16 02:52:51;;;;;;;6.43;5.18;;;;;;;19.58;53.67;101016.69;10283572;28;20058;-74
2023/06/16 02:57:55;;;;;;;7.78;5.15;;;;;;;19.73;53.56;101023.69;10264739;29;20036;-74
2023/06/16 03:02:58;;;;;;;11.05;4.53;;;;;;;19.72;53.95;101024.00;10281647;29;20050;-74
2023/06/16 03:08:01;;;;;;;7.20;4.50;;;;;;;19.97;53.09;101014.75;10279142;28;20043;-74
2023/06/16 03:13:03;;;;;;;10.35;5.28;;;;;;;20.36;52.22;101012.72;10281324;29;20043;-74
2023/06/16 03:18:05;;;;;;;7.38;4.90;;;;;;;20.49;53.36;101016.44;10281435;29;20051;-74
2023/06/16 03:23:08;;;;;;;9.32;4.70;;;;;;;20.76;52.52;101019.47;10265788;29;20065;-74
2023/06/16 03:28:10;;;;;;;10.57;5.65;;;;;;;20.91;52.13;101018.06;10280180;29;20528;-74
2023/06/16 03:33:12;;;;;;;9.60;5.65;;;;;;;21.06;50.83;101011.84;10281072;29;20055;-74
2023/06/16 03:38:18;;;;;;;7.20;4.82;;;;;;;21.04;50.89;101016.13;10282190;28;20047;-74
2023/06/16 03:43:21;;;;;;;7.65;4.57;;;;;;;21.43;49.60;101016.75;10280562;29;20054;-74
2023/06/16 03:48:24;;;;;;;9.18;4.80;;;;;;;21.91;48.31;101011.25;10280280;28;20039;-74
2023/06/16 03:53:31;;;;;;;8.35;4.40;;;;;;;22.03;48.03;101018.78;10280044;29;20039;-74
2023/06/16 03:58:35;;;;;;;9.68;4.50;;;;;;;22.26;47.50;101017.19;10256765;29;20047;-75
2023/06/16 04:03:39;;;;;;;7.55;4.40;;;;;;;22.62;48.13;101017.50;10275981;29;20046;-75
2023/06/16 04:08:44;;;;;;;6.82;4.70;;;;;;;22.88;46.30;101019.88;10263382;29;20131;-74
2023/06/16 04:13:48;;;;;;;8.02;4.22;;;;;;;23.05;45.68;101025.16;10250397;29;20066;-75
2023/06/16 04:18:52;;;;;;;6.95;4.22;;;;;;;23.33;44.76;101019.56;10256903;28;20051;-75
2023/06/16 04:23:54;;;;;;;9.63;5.32;;;;;;;23.41;41.51;101022.19;10279342;29;20421;-75
2023/06/16 04:29:03;;;;;;;7.10;4.50;;;;;;;23.50;40.73;101021.22;10285537;29;20047;-75
2023/06/16 04:34:06;;;;;;;6.47;4.30;;;;;;;23.36;39.68;101018.84;10269842;29;20035;-76
2023/06/16 04:39:12;;;;;;;8.90;3.97;;;;;;;23.31;39.56;101021.91;10285870;29;20043;-75
2023/06/16 04:44:14;;;;;;;6.72;4.18;;;;;;;23.72;39.88;101021.44;10288076;29;20058;-76
2023/06/16 04:49:19;;;;;;;6.32;4.20;;;;;;;24.16;39.07;101012.94;10287028;29;20047;-75
2023/06/16 04:54:22;;;;;;;9.13;4.60;;;;;;;24.56;37.97;101011.88;10286684;29;20063;-76
2023/06/16 04:59:27;;;;;;;7.78;3.72;;;;;;;24.73;38.54;101013.44;10285416;29;20629;-76
2023/06/16 05:04:29;;;;;;;8.90;4.10;;;;;;;25.19;37.68;101011.63;10286674;29;20039;-76
2023/06/16 05:09:32;;;;;;;6.93;3.95;;;;;;;25.41;36.76;101016.44;10285033;28;20521;-76
2023/06/16 05:14:34;;;;;;;5.90;4.15;;;;;;;25.51;35.99;101015.84;10290829;28;20051;-76
2023/06/16 05:19:37;;;;;;;7.32;4.38;;;;;;;25.85;37.15;101011.22;10281158;29;20050;-76
2023/06/16 05:24:39;;;;;;;7.43;4.35;;;;;;;25.92;37.03;101002.13;10282868;29;20063;-76
2023/06/16 05:29:41;;;;;;;9.07;4.22;;;;;;;26.30;37.00;101011.53;10283432;29;20043;-76
2023/06/16 05:34:44;;;;;;;6.63;4.00;;;;;;;26.87;35.58;101013.16;10268762;28;20056;-76
2023/06/16 05:39:48;;;;;;;7.68;4.20;;;;;;;26.94;34.96;101002.00;10283275;29;20058;-76
2023/06/16 05:44:50;;;;;;;8.85;3.95;;;;;;;27.48;34.31;101002.63;10264612;29;20047;-76
2023/06/16 05:49:53;;;;;;;8.25;4.18;;;;;;;27.54;33.92;101004.69;10273899;29;20058;-74
2023/06/16 05:54:57;;;;;;;6.07;3.90;;;;;;;27.41;33.89;101013.81;10281253;29;20051;-74
2023/06/16 06:00:09;;;;;;;7.07;3.97;;;;;;;28.01;33.29;101007.94;10281526;29;20128;-76
2023/06/16 06:05:20;;;;;;;6.93;3.95;;;;;;;28.36;32.09;101019.53;10279715;29;20035;-76
2023/06/16 06:10:22;;;;;;;7.78;3.67;;;;;;;28.35;31.54;101017.91;10282528;29;20039;-76
2023/06/16 06:15:25;;;;;;;9.13;3.92;;;;;;;28.64;32.09;101020.91;10283126;28;20561;-76
2023/06/16 06:20:34;;;;;;;5.55;4.20;;;;;;;28.52;32.07;101019.22;10278761;28;20047;-76
2023/06/16 06:25:37;;;;;;;7.53;4.07;;;;;;;28.17;31.67;101014.13;10280282;29;20051;-76
2023/06/16 06:30:40;;;;;;;4.93;4.10;;;;;;;27.76;33.21;101016.19;10263519;29;20062;-76
2023/06/16 06:35:43;;;;;;;5.50;3.80;;;;;;;28.00;32.86;101009.16;10281917;29;20039;-76
2023/06/16 06:40:45;;;;;;;8.30;4.28;;;;;;;28.45;31.99;101014.31;10280859;29;20067;-76
2023/06/16 06:45:49;;;;;;;5.88;3.95;;;;;;;28.45;32.53;101008.66;10280094;28;20046;-75
2023/06/16 06:50:52;;;;;;;8.45;4.05;;;;;;;28.61;32.25;101005.53;10282240;29;20043;-76
2023/06/16 06:55:54;;;;;;;10.00;4.60;;;;;;;29.41;31.84;101005.47;10281883;28;20833;-77
2023/06/16 07:00:57;;;;;;;7.57;4.80;;;;;;;29.37;30.93;100999.81;10278360;29;20058;-77
2023/06/16 07:05:59;;;;;;;5.32;3.97;;;;;;;29.82;31.11;101008.75;10278766;28;20055;-77
2023/06/16 07:11:02;;;;;;;7.28;4.45;;;;;;;29.39;31.23;101010.72;10292876;28;20031;-78
2023/06/16 07:16:04;;;;;;;10.07;4.18;;;;;;;29.53;30.86;101007.94;10276545;29;20039;-78
2023/06/16 07:21:06;;;;;;;8.65;4.03;;;;;;;29.79;30.52;101003.09;10277636;29;20502;-78
2023/06/16 07:26:09;;;;;;;6.05;3.83;;;;;;;29.94;29.40;101004.72;10281255;28;20054;-78
2023/06/16 07:31:11;;;;;;;7.68;4.10;;;;;;;30.45;28.93;101001.44;10268695;28;20051;-78
2023/06/16 07:36:13;;;;;;;7.30;3.83;;;;;;;30.21;28.77;101000.28;10277995;28;20502;-76
2023/06/16 07:41:15;;;;;;;9.48;3.85;;;;;;;30.29;28.96;101001.88;10271648;29;20044;-76
2023/06/16 07:46:18;;;;;;;5.55;3.72;;;;;;;29.82;28.74;101002.28;10279576;28;20081;-76
2023/06/16 07:51:21;;;;;;;6.90;3.63;;;;;;;30.28;28.97;100997.44;10277024;29;20047;-76
2023/06/16 07:56:24;;;;;;;5.30;4.00;;;;;;;31.27;28.67;101001.16;10282038;28;20438;-77
2023/06/16 08:01:26;;;;;;;5.13;3.38;;;;;;;31.36;28.17;100987.31;10287997;29;20414;-77
2023/06/16 08:06:29;;;;;;;6.57;3.50;;;;;;;31.01;28.54;100993.97;10287183;29;20047;-76
2023/06/16 08:11:31;;;;;;;6.63;4.47;;;;;;;30.56;28.85;100990.09;10270975;28;20063;-76
2023/06/16 08:16:33;;;;;;;8.55;3.65;;;;;;;30.65;28.13;100992.50;10276908;29;20043;-75
2023/06/16 08:21:37;;;;;;;6.10;4.07;;;;;;;31.31;28.24;100984.91;10275645;29;20051;-76
2023/06/16 08:26:39;;;;;;;7.78;4.65;;;;;;;31.77;28.38;100992.31;10282367;29;20338;-73
2023/06/16 08:31:41;;;;;;;5.93;3.58;;;;;;;31.92;27.17;100984.47;10283127;28;20047;-73
2023/06/16 08:36:44;;;;;;;5.55;4.10;;;;;;;32.12;26.00;100991.19;10298463;28;20051;-73
2023/06/16 08:41:47;;;;;;;6.60;4.10;;;;;;;31.41;27.13;100986.84;10281224;29;20039;-73
2023/06/16 08:46:50;;;;;;;4.75;3.95;;;;;;;31.81;26.26;100990.25;10269953;29;20062;-74
2023/06/16 08:51:52;;;;;;;7.38;4.18;;;;;;;31.49;26.13;100982.75;10283150;28;20046;-75
2023/06/16 08:56:55;;;;;;;6.75;4.53;;;;;;;31.85;25.55;100982.50;10271846;29;20051;-75
2023/06/16 09:01:59;;;;;;;4.97;4.05;;;;;;;31.52;25.14;100980.31;10254138;29;20510;-75
2023/06/16 09:07:01;;;;;;;6.55;4.63;;;;;;;31.68;25.88;100983.44;10286950;28;20039;-74
2023/06/16 09:12:08;;;;;;;11.80;4.80;;;;;;;30.86;25.87;100990.38;10287661;29;20422;-76
2023/06/16 09:17:12;;;;;;;6.30;4.35;;;;;;;30.68;26.27;100974.69;10287141;29;20039;-76
2023/06/16 09:22:23;;;;;;;6.32;3.97;;;;;;;30.42;26.16;100976.78;10282898;28;20529;-76
2023/06/16 09:27:43;;;;;;;6.40;3.80;;;;;;;29.83;27.46;100979.25;10286625;28;20057;-76
2023/06/16 09:32:53;;;;;;;7.53;4.55;;;;;;;29.51;27.12;100982.09;10285920;29;20051;-76
2023/06/16 09:38:00;;;;;;;6.85;4.32;;;;;;;29.17;26.76;100970.28;10286749;29;20044;-77
2023/06/16 09:43:06;;;;;;;6.13;3.80;;;;;;;28.99;26.93;100966.59;10260824;29;20414;-75
2023/06/16 09:48:11;;;;;;;4.85;3.92;;;;;;;28.86;26.56;100968.97;10244867;29;20054;-75
2023/06/16 09:53:16;;;;;;;7.00;4.03;;;;;;;28.87;27.11;100952.84;10246276;29;20052;-75
2023/06/16 09:58:18;;;;;;;5.43;4.00;;;;;;;28.82;27.71;100963.28;10249526;29;20047;-75
2023/06/16 10:03:20;;;;;;;6.70;4.82;;;;;;;28.49;28.78;100963.53;10245815;29;20062;-75
2023/06/16 10:08:22;;;;;;;7.95;5.10;;;;;;;28.35;29.38;100957.81;10244380;29;20040;-75
2023/06/16 10:13:25;;;;;;;6.95;4.80;;;;;;;27.73;30.30;100960.56;10248042;29;20515;-75
2023/06/16 10:18:28;;;;;;;6.57;4.50;;;;;;;27.75;31.50;100960.97;10244890;29;20048;-75
2023/06/16 10:23:30;;;;;;;5.78;4.25;;;;;;;27.86;30.90;100957.06;10243977;29;20054;-75
2023/06/16 10:28:35;;;;;;;10.10;4.70;;;;;;;27.67;31.99;100953.69;10272829;29;20046;-75
2023/06/16 10:33:57;;;;;;;7.22;4.35;;;;;;;27.59;30.28;100958.41;10292122;28;20055;-75
2023/06/16 10:39:07;;;;;;;9.98;4.32;;;;;;;27.54;28.83;100953.13;10244892;29;20054;-75
2023/06/16 10:44:32;;;;;;;5.95;4.47;;;;;;;27.19;30.29;100942.34;10244563;29;20043;-75
2023/06/16 10:49:49;;;;;;;8.18;4.75;;;;;;;27.37;31.81;100939.69;10277579;29;20047;-75
2023/06/16 10:54:52;;;;;;;7.25;4.97;;;;;;;27.46;32.85;100926.91;10280961;28;20066;-75
2023/06/16 11:00:12;;;;;;;9.82;5.53;;;;;;;27.77;33.94;100927.56;10278702;29;20047;-75
2023/06/16 11:05:15;;;;;;;8.77;4.50;;;;;;;27.81;33.36;100923.59;10278965;28;20408;-74
2023/06/16 11:10:20;;;;;;;6.60;4.38;;;;;;;27.97;32.92;100916.84;10295566;28;20525;-73
2023/06/16 11:15:23;;;;;;;6.63;4.75;;;;;;;27.79;33.48;100914.72;10279374;28;20051;-73
2023/06/16 11:20:26;;;;;;;7.28;4.50;;;;;;;27.67;33.20;100909.38;10270710;29;20066;-75
2023/06/16 11:25:28;;;;;;;6.50;4.90;;;;;;;27.79;32.44;100905.44;10243596;29;20047;-72
2023/06/16 11:30:30;;;;;;;6.82;5.20;;;;;;;27.62;32.95;100913.34;10255501;29;20045;-74
2023/06/16 11:35:33;;;;;;;7.13;4.40;;;;;;;27.71;32.34;100907.38;10277043;28;20443;-74
2023/06/16 11:40:35;;;;;;;7.70;5.20;;;;;;;27.93;32.16;100909.16;10279055;28;20055;-75
2023/06/16 11:45:38;;;;;;;7.55;4.47;;;;;;;27.76;32.98;100907.00;10277005;29;20457;-76
2023/06/16 11:50:40;;;;;;;8.38;4.43;;;;;;;27.66;32.01;100901.31;10276527;29;20051;-75
2023/06/16 11:55:49;;;;;;;11.90;4.95;;;;;;;27.46;31.97;100904.34;10271562;28;20051;-74
2023/06/16 12:00:53;;;;;;;11.27;5.13;;;;;;;27.27;32.31;100911.03;10277637;28;20079;-73
2023/06/16 12:05:56;;;;;;;8.10;4.30;;;;;;;27.46;32.48;100900.72;10282269;28;20071;-74
2023/06/16 12:10:59;;;;;;;8.02;4.95;;;;;;;27.71;33.16;100901.75;10274208;29;20062;-74
2023/06/16 12:16:05;;;;;;;6.32;4.18;;;;;;;27.71;32.64;100901.75;10281537;29;20517;-74
2023/06/16 12:21:18;;;;;;;6.85;4.32;;;;;;;27.68;33.45;100893.25;10277730;29;20047;-74
2023/06/16 12:26:28;;;;;;;5.25;4.10;;;;;;;27.66;32.42;100910.56;10281784;29;20525;-73
2023/06/16 12:31:31;;;;;;;5.43;4.35;;;;;;;27.56;33.43;100905.63;10277854;29;20116;-73
2023/06/16 12:36:41;;;;;;;7.53;5.07;;;;;;;27.77;32.51;100908.66;10240666;29;20059;-74
2023/06/16 12:42:13;;;;;;;9.25;5.15;;;;;;;27.83;33.02;100907.06;10243872;29;20047;-72
2023/06/16 12:47:21;;;;;;;7.53;4.50;;;;;;;27.81;33.06;100903.84;10248612;29;20058;-74
2023/06/16 12:52:25;;;;;;;7.10;4.25;;;;;;;27.63;31.63;100908.53;10280023;29;20048;-73
2023/06/16 12:57:27;;;;;;;6.38;4.00;;;;;;;27.53;30.61;100909.22;10249496;29;20051;-71
2023/06/16 13:02:30;;;;;;;4.70;3.83;;;;;;;27.71;30.86;100918.66;10244417;29;20058;-71
2023/06/16 13:07:32;;;;;;;6.18;4.28;;;;;;;27.59;30.73;100927.38;10248057;29;20044;-74
2023/06/16 13:12:34;;;;;;;8.38;3.65;;;;;;;27.11;29.67;100921.75;10280819;29;20429;-72
2023/06/16 13:17:36;;;;;;;4.65;3.28;;;;;;;26.81;29.96;100915.34;10302243;28;20043;-72
2023/06/16 13:22:38;;;;;;;5.28;3.60;;;;;;;26.66;29.43;100917.97;10287697;29;20533;-72
2023/06/16 13:27:40;;;;;;;8.95;3.15;;;;;;;26.55;29.38;100936.72;10274465;29;20482;-74
2023/06/16 13:32:43;;;;;;;5.65;3.40;;;;;;;26.30;29.23;100930.75;10248047;29;20047;-72
2023/06/16 13:37:47;;;;;;;4.95;3.53;;;;;;;26.07;29.40;100913.97;10266445;29;20535;-73
2023/06/16 13:42:49;;;;;;;5.65;2.70;;;;;;;26.02;29.69;100930.34;10278693;28;20053;-73
2023/06/16 13:47:51;;;;;;;5.25;3.78;;;;;;;26.06;28.51;100929.22;10274424;29;20526;-74
2023/06/16 13:52:53;;;;;;;3.88;2.70;;;;;;;26.20;28.17;100920.16;10285052;28;20541;-74
2023/06/16 13:57:56;;;;;;;7.00;3.10;;;;;;;26.30;27.72;100913.88;10268520;29;20048;-75
2023/06/16 14:02:58;;;;;;;5.22;3.00;;;;;;;26.30;26.62;100915.88;10269540;29;20043;-74
2023/06/16 14:08:03;;;;;;;4.47;3.05;;;;;;;26.21;26.78;100912.53;10281536;28;20058;-75
2023/06/16 14:13:06;;;;;;;6.85;2.88;;;;;;;26.19;26.28;100918.53;10271526;29;20055;-75
2023/06/16 14:18:08;;;;;;;6.18;2.92;;;;;;;26.19;26.59;100909.28;10276591;29;20047;-74
2023/06/16 14:23:10;;;;;;;3.45;2.53;;;;;;;26.00;26.22;100907.41;10279210;28;20502;-74
2023/06/16 14:28:15;;;;;;;7.88;3.30;;;;;;;25.92;26.67;100906.50;10278263;29;20042;-75
2023/06/16 14:33:17;;;;;;;4.07;2.67;;;;;;;25.89;27.32;100909.28;10283046;29;20427;-73
2023/06/16 14:38:19;;;;;;;7.75;3.63;;;;;;;25.83;27.73;100903.16;10280910;29;20395;-73
2023/06/16 14:43:22;;;;;;;6.05;3.42;;;;;;;25.67;28.52;100905.28;10280761;28;20044;-73
2023/06/16 14:48:24;;;;;;;3.25;2.65;;;;;;;25.48;28.31;100898.56;10283039;28;20046;-73
2023/06/16 14:53:26;;;;;;;4.05;2.95;;;;;;;25.40;27.96;100894.00;10272393;29;20065;-73
2023/06/16 14:58:37;;;;;;;3.92;2.90;;;;;;;25.30;28.23;100911.47;10275152;28;20039;-74
2023/06/16 15:03:45;;;;;;;4.45;3.00;;;;;;;25.15;28.19;100907.59;10276809;28;20047;-73
2023/06/16 15:08:47;;;;;;;6.30;3.08;;;;;;;25.13;27.76;100889.50;10279152;29;20545;-73
2023/06/16 15:13:50;;;;;;;4.75;2.92;;;;;;;25.23;27.91;100880.47;10278085;29;20046;-73
2023/06/16 15:18:52;;;;;;;5.30;2.53;;;;;;;25.35;28.50;100882.28;10273008;28;20043;-75
2023/06/16 15:23:54;;;;;;;4.38;2.90;;;;;;;25.36;26.77;100890.34;10281409;28;20050;-75
2023/06/16 15:28:57;;;;;;;4.22;3.05;;;;;;;25.29;27.23;100900.63;10272124;28;20047;-74
2023/06/16 15:34:00;;;;;;;2.80;1.65;;;;;;;25.22;26.06;100899.31;10277811;28;20077;-76
2023/06/16 15:39:06;;;;;;;5.63;3.33;;;;;;;25.25;26.47;100889.34;10279060;29;20039;-75
2023/06/16 15:44:09;;;;;;;4.07;2.77;;;;;;;25.25;26.96;100892.16;10268143;29;20035;-74
2023/06/16 15:49:12;;;;;;;4.30;3.10;;;;;;;25.18;25.96;100889.22;10273870;29;20054;-74
2023/06/16 15:54:14;;;;;;;2.88;2.47;;;;;;;25.15;25.97;100882.34;10250116;29;20061;-74
2023/06/16 15:59:16;;;;;;;3.88;2.70;;;;;;;25.08;26.31;100882.22;10276227;29;20048;-73
2023/06/16 16:04:20;;;;;;;4.13;2.85;;;;;;;25.09;26.15;100878.22;10267805;29;20420;-74
2023/06/16 16:09:22;;;;;;;4.32;2.60;;;;;;;25.11;26.02;100878.66;10265891;29;20070;-74
2023/06/16 16:14:25;;;;;;;4.47;2.65;;;;;;;25.11;26.65;100877.84;10256500;28;20055;-74
2023/06/16 16:19:27;;;;;;;3.50;2.38;;;;;;;25.00;25.06;100874.06;10292546;28;20426;-74
2023/06/16 16:24:29;;;;;;;4.93;3.08;;;;;;;24.82;26.00;100868.91;10288488;29;20043;-74
2023/06/16 16:29:31;;;;;;;4.90;2.65;;;;;;;24.79;25.99;100866.81;10281907;28;20054;-74
2023/06/16 16:34:34;;;;;;;4.78;2.90;;;;;;;24.72;26.34;100863.88;10288029;28;20054;-72
2023/06/16 16:39:36;;;;;;;4.40;2.60;;;;;;;24.73;25.95;100873.09;10284242;29;20054;-72
2023/06/16 16:44:39;;;;;;;4.05;2.22;;;;;;;24.64;25.32;100876.97;10284989;29;20078;-72
2023/06/16 16:49:41;;;;;;;5.25;2.75;;;;;;;24.57;26.09;100876.81;10287415;28;20050;-74
2023/06/16 16:54:43;;;;;;;3.53;2.60;;;;;;;24.44;26.48;100877.31;10285691;28;20059;-73
2023/06/16 16:59:45;;;;;;;4.00;2.72;;;;;;;24.45;27.08;100870.53;10285980;28;20052;-74
2023/06/16 17:04:48;;;;;;;4.30;2.53;;;;;;;24.46;26.20;100864.56;10282358;28;20410;-72
2023/06/16 17:09:50;;;;;;;3.75;2.60;;;;;;;24.40;26.67;100859.63;10282734;29;20363;-74
2023/06/16 17:14:52;;;;;;;4.28;2.47;;;;;;;24.37;26.82;100868.78;10283063;28;20039;-74
2023/06/16 17:19:55;;;;;;;9.00;2.80;;;;;;;24.32;27.15;100855.88;10286123;29;20418;-74
2023/06/16 17:24:57;;;;;;;3.08;2.10;;;;;;;24.31;26.52;100863.47;10285023;28;20055;-72
2023/06/16 17:29:59;;;;;;;6.15;2.70;;;;;;;24.20;27.70;100850.38;10278900;28;20454;-74
2023/06/16 17:35:01;;;;;;;5.97;2.65;;;;;;;24.11;26.93;100844.97;10281841;29;20066;-73
2023/06/16 17:40:06;;;;;;;5.53;3.30;;;;;;;24.16;27.76;100849.47;10263377;29;20043;-72
2023/06/16 17:45:09;;;;;;;3.60;2.65;;;;;;;24.11;27.71;100836.53;10271344;29;20047;-72
2023/06/16 17:50:11;;;;;;;3.00;1.95;;;;;;;24.06;28.01;100839.66;10274852;29;20050;-74
2023/06/16 17:55:13;;;;;;;4.70;2.85;;;;;;;24.03;28.62;100846.00;10266195;28;20189;-73
2023/06/16 18:00:16;;;;;;;6.45;3.33;;;;;;;23.98;28.37;100849.09;10280329;29;20070;-73
2023/06/16 18:05:18;;;;;;;4.95;2.83;;;;;;;23.90;28.48;100841.69;10281153;28;20047;-74
2023/06/16 18:10:21;;;;;;;4.05;2.88;;;;;;;23.95;28.64;100850.66;10282849;29;20043;-75
2023/06/16 18:15:23;;;;;;;3.63;2.75;;;;;;;23.97;28.55;100853.09;10281505;29;20043;-74
2023/06/16 18:20:25;;;;;;;5.57;3.22;;;;;;;23.89;28.51;100856.88;10273659;29;20031;-74
2023/06/16 18:25:27;;;;;;;4.63;2.75;;;;;;;23.72;28.83;100864.53;10273870;29;20387;-74
2023/06/16 18:30:30;;;;;;;5.47;3.38;;;;;;;23.71;29.23;100868.50;10282228;28;20062;-74
2023/06/16 18:35:32;;;;;;;7.32;3.67;;;;;;;23.65;28.77;100874.75;10287045;28;20051;-75
2023/06/16 18:40:34;;;;;;;9.60;3.83;;;;;;;23.47;29.21;100882.72;10277343;28;20059;-73
2023/06/16 18:45:37;;;;;;;5.00;2.88;;;;;;;23.44;29.55;100883.44;10273156;29;20519;-72
2023/06/16 18:50:39;;;;;;;4.63;3.15;;;;;;;23.40;30.05;100890.91;10243648;29;20450;-73
2023/06/16 18:55:43;;;;;;;7.05;3.50;;;;;;;23.36;29.82;100887.22;10243855;29;20054;-73
2023/06/16 19:00:45;;;;;;;5.55;3.10;;;;;;;23.21;30.59;100893.63;10243382;29;20055;-73
2023/06/16 19:05:48;;;;;;;7.97;4.75;;;;;;;23.03;31.19;100902.38;10244117;29;20066;-73
2023/06/16 19:10:50;;;;;;;10.35;3.72;;;;;;;22.93;31.30;100902.91;10244259;29;20052;-73
2023/06/16 19:15:52;;;;;;;6.72;3.42;;;;;;;22.90;31.47;100902.78;10254795;29;20046;-73
2023/06/16 19:20:54;;;;;;;7.88;3.95;;;;;;;22.80;31.85;100913.31;10282763;29;20123;-73
2023/06/16 19:25:57;;;;;;;7.35;4.40;;;;;;;22.65;32.59;100916.88;10282219;29;20075;-73
2023/06/16 19:30:59;;;;;;;7.78;4.20;;;;;;;22.56;32.80;100914.25;10276747;28;20058;-75
2023/06/16 19:36:02;;;;;;;6.07;3.85;;;;;;;22.49;33.15;100913.22;10249959;29;20410;-75
2023/06/16 19:41:04;;;;;;;9.40;4.43;;;;;;;22.37;32.79;100924.44;10277784;29;20055;-75
2023/06/16 19:46:07;;;;;;;6.72;4.25;;;;;;;22.26;32.76;100926.91;10281054;29;20395;-76
2023/06/16 19:51:09;;;;;;;6.50;3.72;;;;;;;22.26;33.61;100922.16;10280909;28;20035;-78
2023/06/16 19:56:12;;;;;;;8.35;4.43;;;;;;;22.22;34.18;100920.41;10286790;29;20042;-77
2023/06/16 20:01:14;;;;;;;6.63;4.10;;;;;;;22.10;34.42;100929.63;10289121;28;20460;-77
2023/06/16 20:06:16;;;;;;;9.20;4.43;;;;;;;22.00;34.56;100927.28;10272672;28;20414;-78
2023/06/16 20:11:18;;;;;;;9.93;4.43;;;;;;;22.00;34.67;100932.06;10286432;28;20059;-74
2023/06/16 20:16:21;;;;;;;9.25;4.95;;;;;;;22.03;35.09;100929.38;10289754;28;20062;-72
2023/06/16 20:21:23;;;;;;;7.57;4.75;;;;;;;22.07;35.31;100935.13;10287743;28;20502;-75
2023/06/16 20:26:25;;;;;;;11.38;5.15;;;;;;;22.03;36.04;100929.38;10281326;29;20442;-75
2023/06/16 20:31:28;;;;;;;16.33;4.75;;;;;;;21.98;35.45;100936.00;10285317;28;20055;-75
2023/06/16 20:36:30;;;;;;;20.23;4.75;;;;;;;21.92;35.72;100929.03;10263949;29;20043;-76
2023/06/16 20:41:33;;;;;;;10.35;4.55;;;;;;;21.86;36.04;100924.03;10256007;29;20494;-76
2023/06/16 20:46:38;;;;;;;12.57;5.20;;;;;;;21.78;36.83;100924.97;10283650;29;20062;-76
2023/06/16 20:51:41;;;;;;;14.55;4.85;;;;;;;21.66;37.02;100926.59;10275570;29;20049;-76
2023/06/16 20:56:44;;;;;;;17.08;5.53;;;;;;;21.55;37.29;100935.81;10257825;29;20054;-75
2023/06/16 21:01:47;;;;;;;15.35;5.47;;;;;;;21.42;37.97;100940.56;10281016;28;20047;-75
2023/06/16 21:06:50;;;;;;;14.77;5.03;;;;;;;21.28;37.78;100945.66;10280261;29;20054;-76
2023/06/16 21:11:52;;;;;;;17.35;5.20;;;;;;;21.04;37.25;100954.75;10283360;29;20039;-76
2023/06/16 21:16:54;;;;;;;11.90;4.95;;;;;;;20.81;37.31;100962.66;10280246;29;20494;-76
2023/06/16 21:21:56;;;;;;;5.97;3.80;;;;;;;20.53;36.51;100961.63;10279015;29;20453;-75
2023/06/16 21:26:59;;;;;;;8.40;3.75;;;;;;;20.39;37.01;100959.06;10280653;29;20426;-74
2023/06/16 21:32:01;;;;;;;8.90;3.90;;;;;;;20.18;36.81;100959.88;10278425;29;20054;-74
2023/06/16 21:37:07;;;;;;;8.98;4.28;;;;;;;19.96;37.08;100957.41;10281742;28;20055;-75
2023/06/16 21:42:09;;;;;;;7.22;3.70;;;;;;;19.88;37.73;100959.06;10278936;29;20039;-75
2023/06/16 21:47:11;;;;;;;6.75;3.90;;;;;;;19.82;37.75;100962.38;10274932;29;20074;-72
2023/06/16 21:52:14;;;;;;;7.05;3.92;;;;;;;19.70;38.01;100959.50;10277355;29;20051;-76
2023/06/16 21:57:16;;;;;;;5.75;3.25;;;;;;;19.57;38.94;100953.00;10278651;28;20062;-75
2023/06/16 22:02:19;;;;;;;4.50;2.95;;;;;;;19.41;40.15;100965.78;10283976;29;20051;-76
2023/06/16 22:07:21;;;;;;;6.28;3.53;;;;;;;19.41;41.05;100961.03;10280498;29;20047;-77
2023/06/16 22:12:24;;;;;;;6.63;3.85;;;;;;;19.39;41.43;100955.00;10280117;28;20047;-76
2023/06/16 22:17:26;;;;;;;7.70;3.92;;;;;;;19.35;42.27;100959.59;10281512;29;20395;-75
2023/06/16 22:22:30;;;;;;;6.57;3.97;;;;;;;19.20;42.85;100960.13;10280093;29;20055;-75
2023/06/16 22:27:33;;;;;;;5.18;3.45;;;;;;;19.13;43.66;100957.88;10248131;29;20042;-76
2023/06/16 22:32:36;;;;;;;7.13;3.58;;;;;;;19.00;44.26;100961.66;10272878;29;20533;-75
2023/06/16 22:37:38;;;;;;;5.22;3.30;;;;;;;18.84;45.12;100960.53;10262758;29;20050;-77
2023/06/16 22:42:40;;;;;;;4.78;3.10;;;;;;;18.73;46.31;100962.81;10284196;28;20079;-76
2023/06/16 22:47:42;;;;;;;9.23;4.15;;;;;;;18.75;46.34;100957.78;10271611;29;20055;-74
2023/06/16 22:52:45;;;;;;;6.88;3.33;;;;;;;18.67;46.93;100966.91;10279159;29;20059;-76
2023/06/16 22:57:47;;;;;;;5.47;3.05;;;;;;;18.63;47.79;100972.31;10271245;29;20043;-76
2023/06/16 23:02:49;;;;;;;5.47;3.30;;;;;;;18.64;48.80;100976.75;10280532;29;20058;-76
2023/06/16 23:07:52;;;;;;;7.95;3.65;;;;;;;18.72;49.30;100969.53;10269169;28;20047;-77
2023/06/16 23:12:54;;;;;;;5.93;3.50;;;;;;;18.65;50.71;100963.66;10254962;29;20406;-77